< Cyclone 199504 1995 Season Cyclone 199506 >
Cyclone 199505 (CHLOE)
General InformationTrack Information on Google MapsDetailed Wind InformationList of All Images || ResourceGoogle EarthGE AnimationAtom FeedGeoJSON
Detalied Best Track (Time Zone = UTC)
Year Month Day Hour Lat. Long. Pressure (hPa) Wind (kt) Class Image Chart
1995 4 3 00 -9.0 128.1 1005 19 2 Image --
1995 4 3 12 -9.1 126.1 1005 19 2 Image --
1995 4 4 00 -9.4 123.7 1005 19 2 Image --
1995 4 4 06 -9.6 123.3 1005 19 2 Image --
1995 4 4 12 -9.8 122.9 1000 27 2 Image --
1995 4 4 18 -10.0 122.4 1000 27 2 Image --
1995 4 5 00 -10.1 122.0 995 35 3 Image --
1995 4 5 03 -10.2 121.6 990 41 3 Image --
1995 4 5 06 -10.3 121.2 985 47 3 Image --
1995 4 5 09 -10.4 120.9 980 54 4 Image --
1995 4 5 12 -10.5 120.9 975 60 4 Image --
1995 4 5 15 -10.8 121.1 970 66 5 Image --
1995 4 5 18 -11.0 121.3 965 70 5 Image --
1995 4 5 21 -11.3 121.5 960 76 5 Image --
1995 4 6 00 -11.5 121.7 955 80 5 Image --
1995 4 6 03 -11.8 121.8 955 80 5 Image --
1995 4 6 06 -12.1 121.9 955 80 5 Image --
1995 4 6 09 -12.4 122.1 955 80 5 Image --
1995 4 6 12 -12.8 122.3 955 80 5 Image --
1995 4 6 15 -13.2 122.4 945 89 5 Image --
1995 4 6 18 -13.4 122.7 935 97 5 Image --
1995 4 6 21 -13.7 123.0 925 105 5 Image --
1995 4 7 00 -14.0 123.2 920 107 5 Image --
1995 4 7 03 -14.3 123.3 920 107 5 Image --
1995 4 7 06 -14.5 123.3 920 107 5 Image --
1995 4 7 09 -14.7 123.4 920 107 5 Image --
1995 4 7 12 -14.9 123.6 925 105 5 Image --
1995 4 7 15 -15.1 123.8 930 101 5 Image --
1995 4 7 18 -15.4 123.8 935 97 5 Image --
1995 4 7 21 -15.6 124.0 940 93 5 Image --
1995 4 8 00 -15.9 124.1 945 89 5 Image --
1995 4 8 03 -16.2 124.2 955 80 5 Image --
1995 4 8 06 -16.5 124.2 965 70 5 Image --
1995 4 8 09 -16.8 124.1 980 54 4 Image --
1995 4 8 12 -17.0 124.0 990 41 3 Image --
1995 4 8 15 -17.2 123.8 1000 27 2 Image --
1995 4 8 18 -17.5 123.6 1000 27 2 Image --
< Cyclone 199504 1995 Season Cyclone 199506 >

Help